Time;durP1;ratioP1;P1;durP2;ratioP2;P2;SDS_P1;SDS_P2;PMS_P1;PMS_P2;Temp;Humidity;BMP_temperature;BMP_pressure;BME280_temperature;BME280_humidity;BME280_pressure;Samples;Min_cycle;Max_cycle;Signal;HPM_P1;HPM_P2
2022/05/07 00:00:31;;;;;;;36.55;18.52;;;11.70;99.90;;;;;;5035135;28;20119;-75
2022/05/07 00:02:56;;;;;;;34.92;18.95;;;11.70;99.90;;;;;;5053013;28;20117;-75
2022/05/07 00:05:23;;;;;;;38.10;18.13;;;11.80;99.90;;;;;;5053021;28;20477;-75
2022/05/07 00:07:48;;;;;;;33.53;17.80;;;11.80;99.90;;;;;;5051106;28;20052;-76
2022/05/07 00:10:15;;;;;;;36.20;17.23;;;11.70;99.90;;;;;;5051560;28;20366;-75
2022/05/07 00:12:41;;;;;;;36.63;17.07;;;11.80;99.90;;;;;;5051368;28;20057;-75
2022/05/07 00:15:08;;;;;;;35.28;18.35;;;11.70;99.90;;;;;;5052617;28;20053;-76
2022/05/07 00:20:18;;;;;;;31.02;17.02;;;11.70;99.90;;;;;;5053109;28;20053;-76
2022/05/07 00:22:44;;;;;;;34.85;16.98;;;11.70;99.90;;;;;;5050759;28;20123;-76
2022/05/07 00:25:10;;;;;;;33.80;17.60;;;11.70;99.90;;;;;;5034710;28;20048;-75
2022/05/07 00:27:36;;;;;;;35.47;18.70;;;11.70;99.90;;;;;;5051912;28;20068;-75
2022/05/07 00:30:04;;;;;;;36.75;19.25;;;11.70;99.90;;;;;;5052295;28;20493;-75
2022/05/07 00:32:30;;;;;;;37.65;18.77;;;11.70;99.90;;;;;;5051000;28;20107;-75
2022/05/07 00:34:55;;;;;;;37.17;20.10;;;11.70;99.90;;;;;;5051837;28;20080;-75
2022/05/07 00:37:23;;;;;;;37.00;19.17;;;11.80;99.90;;;;;;5034246;28;20335;-76
2022/05/07 00:39:49;;;;;;;42.25;20.35;;;11.90;99.90;;;;;;5051986;28;20124;-76
2022/05/07 00:42:15;;;;;;;38.50;19.50;;;11.90;99.90;;;;;;5052248;28;20041;-76
2022/05/07 00:44:41;;;;;;;36.95;19.00;;;11.90;99.90;;;;;;5051097;28;20186;-76
2022/05/07 00:47:25;;;;;;;34.97;18.50;;;11.90;99.90;;;;;;5051528;28;20045;-76
2022/05/07 00:51:33;;;;;;;36.58;19.10;;;11.90;99.90;;;;;;5051058;28;20146;-76
2022/05/07 00:52:43;;;;;;;39.15;19.95;;;12.00;99.90;;;;;;5051453;28;20053;-76
2022/05/07 00:55:10;;;;;;;35.15;19.02;;;12.00;99.90;;;;;;5052034;28;20128;-76
2022/05/07 00:57:36;;;;;;;42.88;18.85;;;12.00;99.90;;;;;;5051161;28;20052;-75
2022/05/07 01:00:04;;;;;;;39.45;19.38;;;12.00;99.90;;;;;;5034440;28;20045;-76
2022/05/07 01:02:30;;;;;;;42.05;19.98;;;12.00;99.90;;;;;;5052577;28;20037;-76
2022/05/07 01:04:57;;;;;;;38.63;21.05;;;11.90;99.90;;;;;;5051020;28;20053;-76
2022/05/07 01:07:22;;;;;;;36.95;20.02;;;12.00;99.90;;;;;;5050898;28;20045;-76
2022/05/07 01:09:49;;;;;;;38.55;19.83;;;11.90;99.90;;;;;;5052474;28;20127;-76
2022/05/07 01:12:16;;;;;;;39.55;19.52;;;11.90;99.90;;;;;;5050714;28;20053;-76
2022/05/07 01:14:42;;;;;;;37.50;19.92;;;11.90;99.90;;;;;;5067778;28;20045;-76
2022/05/07 01:17:08;;;;;;;37.45;19.85;;;11.90;99.90;;;;;;5052364;28;20117;-77
2022/05/07 01:19:34;;;;;;;36.63;19.27;;;11.90;99.90;;;;;;5055456;28;20127;-76
2022/05/07 01:22:02;;;;;;;38.40;19.50;;;11.90;99.90;;;;;;5053770;28;20060;-77
2022/05/07 01:24:28;;;;;;;37.15;19.38;;;11.90;99.90;;;;;;5056096;28;20060;-76
2022/05/07 01:26:54;;;;;;;35.63;19.45;;;11.90;99.90;;;;;;5038062;28;20493;-75
2022/05/07 01:29:19;;;;;;;41.92;20.35;;;11.90;99.90;;;;;;5054292;28;20127;-76
2022/05/07 01:31:45;;;;;;;39.75;20.42;;;11.90;99.90;;;;;;5054110;28;20555;-74
2022/05/07 01:34:11;;;;;;;38.55;19.13;;;11.90;99.90;;;;;;5056040;28;20041;-74
2022/05/07 01:36:37;;;;;;;38.13;19.92;;;11.90;99.90;;;;;;5055753;28;20449;-75
2022/05/07 01:39:03;;;;;;;37.38;19.90;;;11.90;99.90;;;;;;5055714;28;20052;-76
2022/05/07 01:41:29;;;;;;;39.17;19.17;;;11.90;99.90;;;;;;5055511;28;20041;-77
2022/05/07 01:43:55;;;;;;;39.58;21.42;;;11.90;99.90;;;;;;5055219;28;20048;-76
2022/05/07 01:49:04;;;;;;;41.05;20.58;;;12.00;99.90;;;;;;5055242;28;20508;-76
2022/05/07 01:51:30;;;;;;;44.53;22.10;;;12.00;99.90;;;;;;5054881;28;20048;-75
2022/05/07 01:53:56;;;;;;;38.75;21.00;;;12.00;99.90;;;;;;5055107;28;20044;-75
2022/05/07 01:56:22;;;;;;;37.63;20.05;;;12.00;99.90;;;;;;5053757;28;20048;-75
2022/05/07 01:58:48;;;;;;;41.80;21.85;;;12.10;99.90;;;;;;5054810;28;20397;-75
2022/05/07 02:01:14;;;;;;;40.35;20.88;;;12.10;99.90;;;;;;5053773;28;20049;-75
2022/05/07 02:03:40;;;;;;;38.75;21.73;;;12.10;99.90;;;;;;5054065;28;20044;-76
2022/05/07 02:06:06;;;;;;;45.45;22.08;;;12.20;99.90;;;;;;5053721;28;20480;-75
2022/05/07 02:08:32;;;;;;;44.30;22.75;;;12.20;99.90;;;;;;5054169;28;20049;-75
2022/05/07 02:11:00;;;;;;;41.88;21.92;;;12.20;99.90;;;;;;5054284;28;20117;-75
2022/05/07 02:13:26;;;;;;;41.22;21.25;;;12.20;99.90;;;;;;5071025;28;20053;-75
2022/05/07 02:15:52;;;;;;;42.78;22.55;;;12.20;99.90;;;;;;5055059;28;20044;-76
2022/05/07 02:18:18;;;;;;;43.60;21.67;;;12.30;99.90;;;;;;5053432;28;20037;-76
2022/05/07 02:20:44;;;;;;;45.10;21.80;;;12.30;99.90;;;;;;5054475;28;20049;-74
2022/05/07 02:23:09;;;;;;;41.15;22.77;;;12.30;99.90;;;;;;5038034;28;20160;-75
2022/05/07 02:25:35;;;;;;;48.05;23.80;;;12.30;99.90;;;;;;5037365;28;20389;-76
2022/05/07 02:28:01;;;;;;;45.75;23.23;;;12.30;99.90;;;;;;5054738;28;20504;-76
2022/05/07 02:30:27;;;;;;;48.55;24.00;;;12.20;99.90;;;;;;5054001;28;20127;-76
2022/05/07 02:32:52;;;;;;;45.50;22.98;;;12.20;99.90;;;;;;5054840;28;20064;-77
2022/05/07 02:35:19;;;;;;;43.78;23.67;;;12.20;99.90;;;;;;5070927;28;20041;-77
2022/05/07 02:37:44;;;;;;;51.70;22.95;;;12.20;99.90;;;;;;5055678;28;20083;-76
2022/05/07 02:40:11;;;;;;;46.42;24.05;;;12.10;99.90;;;;;;5054573;28;20108;-76
2022/05/07 02:42:36;;;;;;;44.67;23.43;;;12.20;99.90;;;;;;5053866;28;20047;-77
2022/05/07 02:45:06;;;;;;;44.47;23.85;;;12.10;99.90;;;;;;5053747;28;20132;-76
2022/05/07 02:47:41;;;;;;;40.20;23.05;;;12.10;99.90;;;;;;5053380;28;20106;-76
2022/05/07 02:50:09;;;;;;;43.05;22.95;;;12.10;99.90;;;;;;5053276;28;20048;-77
2022/05/07 02:52:35;;;;;;;45.25;23.88;;;12.10;99.90;;;;;;5037845;28;20060;-77
2022/05/07 02:55:05;;;;;;;49.20;23.88;;;12.10;99.90;;;;;;5054869;28;20052;-76
2022/05/07 02:57:31;;;;;;;48.28;24.17;;;12.10;99.90;;;;;;5053979;28;20520;-76
2022/05/07 02:59:57;;;;;;;50.40;23.70;;;12.10;99.90;;;;;;5054798;28;20053;-76
2022/05/07 03:02:23;;;;;;;45.42;23.48;;;12.10;99.90;;;;;;5054472;28;20513;-76
2022/05/07 03:04:50;;;;;;;43.45;24.50;;;12.10;99.90;;;;;;5054405;28;20103;-74
2022/05/07 03:07:16;;;;;;;49.25;23.95;;;12.10;99.90;;;;;;5054266;28;20075;-77
2022/05/07 03:09:42;;;;;;;41.63;23.90;;;12.00;99.90;;;;;;5054376;28;20097;-75
2022/05/07 03:12:11;;;;;;;45.73;23.60;;;12.00;99.90;;;;;;5053903;28;20056;-76
2022/05/07 03:14:37;;;;;;;47.25;23.38;;;12.00;99.90;;;;;;5055107;28;20276;-76
2022/05/07 03:17:03;;;;;;;42.63;22.75;;;12.00;99.90;;;;;;5054778;28;20060;-76
2022/05/07 03:19:29;;;;;;;47.25;22.83;;;12.00;99.90;;;;;;5054457;28;20041;-76
2022/05/07 03:21:55;;;;;;;43.50;23.45;;;12.00;99.90;;;;;;5054307;28;20107;-76
2022/05/07 03:24:21;;;;;;;47.08;23.05;;;12.00;99.90;;;;;;5054293;28;20095;-76
2022/05/07 03:26:47;;;;;;;45.72;22.75;;;11.90;99.90;;;;;;5069037;28;20459;-77
2022/05/07 03:29:12;;;;;;;42.40;23.77;;;11.90;99.90;;;;;;5054187;28;20048;-76
2022/05/07 03:31:39;;;;;;;45.53;23.45;;;11.90;99.90;;;;;;5053967;28;20075;-77
2022/05/07 03:34:08;;;;;;;45.63;23.95;;;11.90;99.90;;;;;;5053862;28;20389;-75
2022/05/07 03:36:34;;;;;;;44.78;23.63;;;11.90;99.90;;;;;;5054369;28;20052;-77
2022/05/07 03:39:00;;;;;;;46.08;23.73;;;11.90;99.90;;;;;;5053480;28;20041;-75
2022/05/07 03:41:26;;;;;;;43.60;22.33;;;12.00;99.90;;;;;;5051772;28;20048;-76
2022/05/07 03:43:52;;;;;;;43.10;22.52;;;11.90;99.90;;;;;;5053418;28;20045;-76
2022/05/07 03:46:18;;;;;;;45.92;23.50;;;11.90;99.90;;;;;;5052705;28;20068;-76
2022/05/07 03:48:44;;;;;;;40.78;22.35;;;12.00;99.90;;;;;;5053406;28;20049;-76
2022/05/07 03:51:10;;;;;;;46.33;22.88;;;12.00;99.90;;;;;;5052186;28;20140;-76
2022/05/07 03:53:36;;;;;;;43.88;23.38;;;12.00;99.90;;;;;;5053370;28;20052;-76
2022/05/07 03:56:08;;;;;;;49.33;23.98;;;12.00;99.90;;;;;;5052109;28;20136;-77
2022/05/07 03:58:35;;;;;;;43.75;23.17;;;12.00;99.90;;;;;;5053447;28;20048;-75
2022/05/07 04:01:01;;;;;;;;;;;12.00;99.90;;;;;;5052617;28;20052;-77
2022/05/07 04:03:29;;;;;;;49.20;24.20;;;11.90;99.90;;;;;;5053640;28;19920;-77
2022/05/07 04:05:54;;;;;;;;;;;12.00;99.90;;;;;;5053058;28;20288;-77
2022/05/07 04:08:21;;;;;;;45.45;22.92;;;11.90;99.90;;;;;;5052836;28;19921;-77
2022/05/07 04:10:47;;;;;;;45.33;23.30;;;11.90;99.90;;;;;;5035734;28;20053;-77
2022/05/07 04:13:15;;;;;;;45.75;24.25;;;11.90;99.90;;;;;;5052974;28;20356;-76
2022/05/07 04:15:43;;;;;;;50.08;24.35;;;11.90;99.90;;;;;;5052478;28;20102;-76
2022/05/07 04:18:09;;;;;;;47.47;24.58;;;11.90;99.90;;;;;;5069638;28;20048;-76
2022/05/07 04:20:35;;;;;;;48.87;25.40;;;11.90;99.90;;;;;;5052432;28;20044;-77
2022/05/07 04:23:02;;;;;;;49.65;25.15;;;11.90;99.90;;;;;;5053902;28;20154;-76
2022/05/07 04:25:28;;;;;;;49.53;26.00;;;11.90;99.90;;;;;;5052074;28;20529;-77
2022/05/07 04:27:54;;;;;;;53.27;26.77;;;11.90;99.90;;;;;;5052426;28;20048;-77
2022/05/07 04:30:23;;;;;;;47.95;26.17;;;11.80;99.90;;;;;;5035452;28;20053;-76
2022/05/07 04:32:50;;;;;;;50.67;25.60;;;11.80;99.90;;;;;;5053022;28;20045;-76
2022/05/07 04:35:16;;;;;;;50.70;25.80;;;11.80;99.90;;;;;;5052447;28;20473;-75
2022/05/07 04:37:42;;;;;;;49.00;25.15;;;;;;;;;;5052769;28;20053;-75
2022/05/07 04:40:11;;;;;;;51.33;27.25;;;11.80;99.90;;;;;;5054130;28;20131;-76
2022/05/07 04:42:37;;;;;;;43.37;24.00;;;11.80;99.90;;;;;;5056407;28;20048;-77
2022/05/07 04:45:07;;;;;;;46.30;25.58;;;11.80;99.90;;;;;;5048220;28;20105;-75
2022/05/07 04:47:33;;;;;;;51.30;25.42;;;11.90;99.90;;;;;;5068988;28;20056;-77
2022/05/07 04:49:59;;;;;;;48.03;24.98;;;11.90;99.90;;;;;;5071038;28;20063;-76
2022/05/07 04:52:24;;;;;;;55.85;27.33;;;11.90;99.90;;;;;;5057998;28;20065;-75
2022/05/07 04:54:50;;;;;;;48.95;27.10;;;12.00;99.90;;;;;;5079145;28;20033;-76
2022/05/07 04:57:16;;;;;;;51.55;26.77;;;12.00;99.90;;;;;;5078396;28;20060;-75
2022/05/07 04:59:42;;;;;;;50.78;27.13;;;12.00;99.90;;;;;;5077610;28;20435;-75
2022/05/07 05:02:07;;;;;;;50.03;27.05;;;12.00;99.90;;;;;;5075415;28;20045;-76
2022/05/07 05:04:36;;;;;;;49.42;26.50;;;12.00;99.90;;;;;;5077205;28;20041;-75
2022/05/07 05:07:02;;;;;;;51.72;26.40;;;12.10;99.90;;;;;;5047504;28;20095;-77
2022/05/07 05:09:28;;;;;;;51.80;26.35;;;12.20;99.90;;;;;;5058735;28;20056;-76
2022/05/07 05:11:54;;;;;;;50.15;26.38;;;12.20;99.90;;;;;;5057986;28;20092;-77
2022/05/07 05:17:03;;;;;;;53.00;26.65;;;12.20;99.90;;;;;;5056713;28;20497;-75
2022/05/07 05:19:29;;;;;;;51.75;27.20;;;12.30;99.90;;;;;;5055417;28;20059;-77
2022/05/07 05:21:55;;;;;;;50.42;27.08;;;12.30;99.90;;;;;;5056439;28;20057;-76
2022/05/07 05:24:21;;;;;;;51.80;27.85;;;12.30;99.90;;;;;;5056493;28;20088;-77
2022/05/07 05:26:47;;;;;;;52.55;27.27;;;12.40;99.90;;;;;;5057591;28;20489;-77
2022/05/07 05:29:12;;;;;;;51.17;27.35;;;12.40;99.90;;;;;;5059212;28;20037;-77
2022/05/07 05:31:38;;;;;;;49.08;26.60;;;12.40;99.90;;;;;;5058283;28;20045;-77
2022/05/07 05:34:04;;;;;;;49.85;26.05;;;12.50;99.90;;;;;;5056508;28;20047;-77
2022/05/07 05:36:32;;;;;;;51.25;27.10;;;12.50;99.90;;;;;;5056032;28;20051;-76
2022/05/07 05:38:58;;;;;;;53.90;26.88;;;12.60;99.90;;;;;;5057557;28;20045;-77
2022/05/07 05:41:24;;;;;;;52.15;27.92;;;12.70;99.90;;;;;;5056302;28;20064;-77
2022/05/07 05:43:50;;;;;;;51.00;27.88;;;12.70;99.90;;;;;;5056804;28;20060;-77
2022/05/07 05:46:16;;;;;;;54.53;26.40;;;12.80;99.90;;;;;;5056834;28;20045;-76
2022/05/07 05:48:42;;;;;;;48.05;26.38;;;12.90;99.90;;;;;;5055185;28;20052;-76
2022/05/07 05:51:08;;;;;;;52.73;26.57;;;13.00;99.90;;;;;;5055009;28;20053;-76
2022/05/07 05:53:34;;;;;;;54.10;26.23;;;13.10;99.90;;;;;;5056080;28;20048;-76
2022/05/07 05:56:00;;;;;;;48.70;26.00;;;13.40;99.90;;;;;;5056364;28;20078;-76
2022/05/07 05:58:33;;;;;;;47.20;25.63;;;13.50;99.90;;;;;;5055676;28;20112;-75
2022/05/07 06:01:03;;;;;;;49.65;26.63;;;13.50;99.90;;;;;;5057280;28;20151;-76
2022/05/07 06:03:30;;;;;;;44.85;25.65;;;13.70;99.90;;;;;;5058422;28;20060;-75
2022/05/07 06:05:56;;;;;;;49.20;26.25;;;13.80;99.90;;;;;;5057366;28;20045;-77
2022/05/07 06:08:22;;;;;;;44.83;25.08;;;13.90;99.90;;;;;;5060293;28;20037;-74
2022/05/07 06:10:52;;;;;;;49.25;25.08;;;;;;;;;;5064888;28;20116;-74
2022/05/07 06:13:18;;;;;;;49.30;25.67;;;14.10;99.90;;;;;;5066222;28;20053;-76
2022/05/07 06:15:45;;;;;;;45.03;24.95;;;14.10;99.90;;;;;;5047864;28;20049;-76
2022/05/07 06:18:11;;;;;;;46.42;24.15;;;14.20;99.90;;;;;;5061945;28;20037;-76
2022/05/07 06:20:37;;;;;;;46.88;25.67;;;14.30;99.90;;;;;;5059318;28;20110;-76
2022/05/07 06:23:03;;;;;;;49.80;25.80;;;14.20;99.90;;;;;;5038837;28;20069;-76
2022/05/07 06:28:13;;;;;;;49.88;25.15;;;14.30;99.90;;;;;;5055468;28;20090;-75
2022/05/07 06:30:39;;;;;;;50.80;25.55;;;14.40;99.90;;;;;;5053971;28;20211;-76
2022/05/07 06:33:05;;;;;;;45.33;25.60;;;14.50;99.90;;;;;;5038154;28;20040;-76
2022/05/07 06:35:32;;;;;;;48.30;25.97;;;14.60;99.90;;;;;;5054448;28;20049;-76
2022/05/07 06:37:58;;;;;;;45.92;24.42;;;14.60;99.90;;;;;;5053779;28;20294;-76
2022/05/07 06:40:24;;;;;;;50.42;25.30;;;14.60;99.90;;;;;;5053817;28;20505;-76
2022/05/07 06:42:49;;;;;;;47.17;25.05;;;14.70;99.90;;;;;;5053815;28;20055;-76
2022/05/07 06:45:16;;;;;;;57.95;27.25;;;14.80;99.90;;;;;;5052537;28;20127;-74
2022/05/07 06:47:41;;;;;;;44.53;25.30;;;14.90;99.90;;;;;;5036686;28;20052;-75
2022/05/07 06:50:07;;;;;;;47.70;26.02;;;14.90;99.90;;;;;;5053283;28;20049;-74
2022/05/07 06:52:45;;;;;;;45.23;27.13;;;15.00;99.90;;;;;;5036670;28;20041;-74
2022/05/07 06:55:18;;;;;;;48.53;26.00;;;15.10;99.90;;;;;;5053027;28;20132;-75
2022/05/07 06:57:45;;;;;;;47.78;26.55;;;15.30;99.90;;;;;;5052633;28;20044;-75
2022/05/07 07:00:14;;;;;;;48.33;26.63;;;16.40;99.90;;;;;;5054162;28;20168;-78
2022/05/07 07:02:40;;;;;;;49.35;26.38;;;;;;;;;;5054302;28;20045;-75
2022/05/07 07:05:07;;;;;;;46.40;25.58;;;15.70;99.90;;;;;;5053834;28;20127;-75
2022/05/07 07:07:33;;;;;;;48.40;24.38;;;15.50;99.90;;;;;;5052776;28;20164;-75
2022/05/07 07:09:59;;;;;;;47.75;25.48;;;15.60;99.90;;;;;;5054543;28;20041;-77
2022/05/07 07:12:25;;;;;;;48.90;26.02;;;15.70;99.90;;;;;;5036219;28;20045;-77
2022/05/07 07:14:51;;;;;;;44.57;24.27;;;15.80;99.90;;;;;;5053839;28;20353;-77
2022/05/07 07:17:17;;;;;;;45.47;23.15;;;15.80;99.90;;;;;;5052349;28;20051;-75
2022/05/07 07:19:44;;;;;;;45.65;24.23;;;15.90;99.90;;;;;;5052967;28;20044;-76
2022/05/07 07:22:14;;;;;;;40.83;22.85;;;15.90;99.90;;;;;;5051794;28;20484;-76
2022/05/07 07:24:40;;;;;;;44.50;23.00;;;16.00;99.90;;;;;;5053898;28;20132;-76
2022/05/07 07:27:08;;;;;;;37.97;20.38;;;16.10;99.90;;;;;;5053412;28;20513;-75
2022/05/07 07:29:34;;;;;;;37.60;17.95;;;16.40;99.90;;;;;;5052677;28;20381;-75
2022/05/07 07:32:00;;;;;;;33.80;18.03;;;16.50;99.90;;;;;;5052213;28;20045;-76
2022/05/07 07:34:26;;;;;;;37.40;16.85;;;16.50;99.90;;;;;;5053191;28;20045;-76
2022/05/07 07:36:52;;;;;;;34.55;17.70;;;16.60;99.90;;;;;;5035636;28;20424;-76
2022/05/07 07:39:18;;;;;;;31.50;15.32;;;16.80;99.90;;;;;;5068721;28;20053;-75
2022/05/07 07:41:44;;;;;;;30.73;16.23;;;16.90;99.90;;;;;;5053170;28;20051;-76
2022/05/07 07:44:10;;;;;;;33.05;15.85;;;17.00;99.90;;;;;;5052370;28;20049;-76
2022/05/07 07:49:21;;;;;;;28.05;13.50;;;17.20;99.90;;;;;;5053024;28;20045;-75
2022/05/07 07:51:47;;;;;;;24.63;13.50;;;17.30;99.90;;;;;;5035400;28;20103;-75
2022/05/07 07:54:14;;;;;;;32.20;13.40;;;17.40;99.90;;;;;;5053536;28;20049;-76
2022/05/07 07:56:43;;;;;;;34.50;13.23;;;17.40;99.90;;;;;;5052064;28;20459;-76
2022/05/07 07:59:09;;;;;;;31.55;13.73;;;17.30;99.90;;;;;;5051588;28;20052;-77
2022/05/07 08:01:35;;;;;;;31.42;14.82;;;17.30;99.90;;;;;;5052705;28;20119;-76
2022/05/07 08:04:01;;;;;;;29.67;14.18;;;17.30;99.90;;;;;;5051900;28;20057;-76
2022/05/07 08:06:28;;;;;;;24.10;12.10;;;17.00;99.90;;;;;;5052706;28;20048;-76
2022/05/07 08:11:41;;;;;;;28.25;12.43;;;17.10;99.90;;;;;;5051220;28;20143;-75
2022/05/07 08:14:08;;;;;;;33.38;13.50;;;17.30;99.90;;;;;;5052771;28;20041;-75
2022/05/07 08:16:34;;;;;;;;;;;17.30;99.90;;;;;;5035219;28;20131;-75
2022/05/07 08:19:00;;;;;;;27.40;13.48;;;17.60;99.90;;;;;;5051232;28;19920;-75
2022/05/07 08:21:26;;;;;;;30.80;14.93;;;17.40;99.90;;;;;;5051268;28;20092;-75
2022/05/07 08:23:52;;;;;;;29.27;14.27;;;17.30;99.90;;;;;;5052654;28;20092;-75
2022/05/07 08:26:18;;;;;;;27.88;14.25;;;17.60;99.90;;;;;;5052876;28;20044;-76
2022/05/07 08:28:44;;;;;;;33.30;14.30;;;17.90;99.90;;;;;;5034562;28;20116;-76
2022/05/07 08:31:11;;;;;;;32.83;14.32;;;18.10;99.90;;;;;;5051535;28;20052;-76
2022/05/07 08:33:40;;;;;;;31.02;13.45;;;18.10;99.90;;;;;;5051505;28;20049;-75
2022/05/07 08:36:07;;;;;;;28.60;14.07;;;18.20;99.90;;;;;;5051503;28;20045;-76
2022/05/07 08:38:33;;;;;;;33.95;15.68;;;17.70;99.90;;;;;;5051090;28;20447;-76
2022/05/07 08:41:02;;;;;;;28.40;14.10;;;17.60;99.90;;;;;;5050981;28;20118;-76
2022/05/07 08:43:33;;;;;;;28.20;14.73;;;18.00;99.90;;;;;;5051212;28;20041;-74
2022/05/07 08:45:59;;;;;;;35.80;14.38;;;18.00;99.90;;;;;;5035348;28;20490;-77
2022/05/07 08:48:25;;;;;;;28.17;15.17;;;18.10;99.90;;;;;;5050890;28;20056;-75
2022/05/07 08:50:53;;;;;;;30.07;14.63;;;17.80;99.90;;;;;;5051018;28;20045;-75
2022/05/07 08:53:20;;;;;;;30.10;14.75;;;18.00;99.90;;;;;;5051657;28;20068;-78
2022/05/07 08:55:54;;;;;;;31.20;16.00;;;18.00;99.90;;;;;;5051862;28;20400;-75
2022/05/07 08:58:20;;;;;;;33.17;16.25;;;18.30;99.90;;;;;;5051216;28;20041;-75
2022/05/07 09:00:46;;;;;;;34.05;16.00;;;18.10;99.90;;;;;;5052389;28;20578;-76
2022/05/07 09:03:16;;;;;;;31.87;16.27;;;18.60;99.90;;;;;;5052418;28;20059;-76
2022/05/07 09:05:42;;;;;;;35.30;15.38;;;19.00;99.90;;;;;;5051120;28;20380;-75
2022/05/07 09:08:10;;;;;;;38.17;16.98;;;19.00;99.90;;;;;;5052373;28;20049;-75
2022/05/07 09:10:37;;;;;;;30.90;16.48;;;18.90;99.90;;;;;;5051405;28;20049;-75
2022/05/07 09:13:11;;;;;;;34.33;16.05;;;19.20;99.90;;;;;;5051147;28;20061;-76
2022/05/07 09:15:48;;;;;;;32.75;17.98;;;19.30;99.90;;;;;;5050964;28;20052;-76
2022/05/07 09:18:15;;;;;;;33.67;17.77;;;18.80;99.90;;;;;;5051083;28;20041;-75
2022/05/07 09:20:41;;;;;;;35.30;17.20;;;18.40;99.90;;;;;;5052042;28;20049;-75
2022/05/07 09:23:10;;;;;;;37.23;17.13;;;18.60;99.90;;;;;;5052142;28;20106;-75
2022/05/07 09:25:45;;;;;;;33.40;17.60;;;18.70;99.90;;;;;;5052078;28;20345;-77
2022/05/07 09:28:11;;;;;;;34.58;17.17;;;19.00;99.90;;;;;;5051603;28;20470;-75
2022/05/07 09:30:38;;;;;;;35.93;17.93;;;19.30;99.90;;;;;;5034085;28;20179;-75
2022/05/07 09:33:06;;;;;;;34.78;18.52;;;19.70;99.90;;;;;;5052066;28;20427;-75
2022/05/07 09:35:50;;;;;;;37.38;18.10;;;19.90;99.90;;;;;;5051775;28;20462;-74
2022/05/07 09:38:24;;;;;;;35.05;17.63;;;20.10;99.90;;;;;;5051919;28;20045;-76
2022/05/07 09:40:51;;;;;;;35.20;17.23;;;20.40;99.90;;;;;;5054834;28;20044;-76
2022/05/07 09:43:17;;;;;;;31.88;17.10;;;20.80;99.90;;;;;;5038035;28;20074;-75
2022/05/07 09:45:44;;;;;;;;;;;19.90;99.90;;;;;;5054749;28;20583;-75
2022/05/07 09:48:12;;;;;;;;;;;19.50;99.90;;;;;;5055540;28;19943;-76
2022/05/07 09:58:38;;;;;;;33.58;15.88;;;19.80;99.90;;;;;;5055075;28;20056;-75
2022/05/07 10:01:33;;;;;;;31.17;15.98;;;19.90;99.90;;;;;;5055165;28;20049;-75
2022/05/07 10:04:18;;;;;;;32.42;17.17;;;20.40;99.90;;;;;;5037658;28;20094;-77
2022/05/07 10:07:02;;;;;;;30.67;15.75;;;20.60;99.90;;;;;;5055468;28;20056;-75
2022/05/07 10:09:42;;;;;;;32.65;15.98;;;20.50;99.90;;;;;;5055711;28;20429;-76
2022/05/07 10:12:10;;;;;;;30.95;13.82;;;20.40;99.90;;;;;;5054790;28;20053;-75
2022/05/07 10:14:36;;;;;;;30.42;14.75;;;20.10;99.90;;;;;;5054835;28;20417;-75
2022/05/07 10:17:09;;;;;;;30.60;15.50;;;19.90;99.90;;;;;;5054489;28;20089;-76
2022/05/07 10:19:36;;;;;;;36.15;15.93;;;19.60;99.90;;;;;;5053224;28;20052;-74
2022/05/07 10:22:02;;;;;;;31.67;15.13;;;19.70;99.90;;;;;;5054930;28;20053;-77
2022/05/07 10:24:28;;;;;;;32.42;16.27;;;20.10;99.90;;;;;;5054733;28;20088;-76
2022/05/07 10:26:54;;;;;;;41.73;17.60;;;20.20;99.90;;;;;;5053433;28;20116;-76
2022/05/07 10:29:30;;;;;;;33.30;17.07;;;20.10;99.90;;;;;;5055209;28;20097;-77
2022/05/07 10:32:03;;;;;;;31.10;16.35;;;19.80;99.90;;;;;;5053569;28;20447;-76
2022/05/07 10:34:29;;;;;;;29.30;15.25;;;19.40;99.90;;;;;;5055186;28;20053;-77
2022/05/07 10:37:06;;;;;;;32.33;16.10;;;19.40;99.90;;;;;;5055470;28;20041;-76
2022/05/07 10:39:32;;;;;;;30.15;16.10;;;19.80;99.90;;;;;;5054723;28;20132;-77
2022/05/07 10:42:01;;;;;;;31.98;16.60;;;19.80;99.90;;;;;;5053178;28;20072;-75
2022/05/07 10:44:34;;;;;;;35.50;17.42;;;19.90;99.90;;;;;;5054922;28;20055;-76
2022/05/07 10:47:14;;;;;;;34.40;17.42;;;19.50;99.90;;;;;;5036264;28;20627;-76
2022/05/07 10:50:12;;;;;;;37.35;17.58;;;19.90;99.90;;;;;;5053972;28;20067;-78
2022/05/07 10:52:37;;;;;;;32.03;16.13;;;19.70;99.90;;;;;;5071697;28;20109;-75
2022/05/07 10:55:16;;;;;;;29.03;15.67;;;20.20;99.90;;;;;;5053478;28;20052;-77
2022/05/07 10:57:45;;;;;;;38.58;17.27;;;19.80;99.90;;;;;;5054404;28;20445;-76
2022/05/07 11:00:20;;;;;;;36.08;18.45;;;19.80;99.90;;;;;;5054245;28;20045;-76
2022/05/07 11:02:48;;;;;;;36.30;17.15;;;19.70;99.90;;;;;;5053727;28;20547;-76
2022/05/07 11:05:15;;;;;;;35.30;17.08;;;19.80;99.90;;;;;;5052892;28;20051;-76
2022/05/07 11:07:43;;;;;;;36.75;17.60;;;20.00;99.90;;;;;;5054485;28;20141;-76
2022/05/07 11:10:10;;;;;;;35.60;17.90;;;20.30;99.90;;;;;;5053899;28;20052;-76
2022/05/07 11:12:38;;;;;;;39.55;20.63;;;20.40;99.90;;;;;;5053720;28;20053;-75
2022/05/07 11:15:05;;;;;;;38.28;18.73;;;20.10;99.90;;;;;;5054655;28;20052;-76
2022/05/07 11:17:34;;;;;;;33.42;19.30;;;20.20;99.90;;;;;;5052554;28;20052;-76
2022/05/07 11:20:01;;;;;;;37.42;19.15;;;20.30;99.90;;;;;;5053709;28;20116;-77
2022/05/07 11:22:30;;;;;;;36.17;18.70;;;20.30;99.90;;;;;;5054134;28;20056;-76
2022/05/07 11:25:01;;;;;;;34.28;18.33;;;20.90;99.90;;;;;;5052977;28;20060;-75
2022/05/07 11:27:34;;;;;;;36.88;18.15;;;21.00;99.90;;;;;;5054088;28;20049;-77
2022/05/07 11:30:01;;;;;;;41.03;20.50;;;20.90;99.90;;;;;;5053726;28;20450;-77
2022/05/07 11:32:41;;;;;;;36.03;20.55;;;20.70;99.90;;;;;;5053951;28;20056;-76
2022/05/07 11:35:08;;;;;;;39.47;20.92;;;20.80;99.90;;;;;;5052227;28;20084;-77
2022/05/07 11:37:42;;;;;;;41.92;20.20;;;20.70;99.90;;;;;;5053689;28;20416;-76
2022/05/07 11:40:09;;;;;;;37.10;19.67;;;21.40;99.90;;;;;;5052580;28;20049;-76
2022/05/07 11:42:36;;;;;;;37.70;20.25;;;21.30;99.40;;;;;;5053172;28;20058;-76
2022/05/07 11:45:31;;;;;;;33.78;19.65;;;20.70;99.60;;;;;;5052010;28;20053;-77
2022/05/07 11:48:09;;;;;;;37.47;19.88;;;20.80;99.90;;;;;;5035787;28;20071;-76
2022/05/07 11:50:59;;;;;;;38.65;20.45;;;20.90;99.90;;;;;;5053241;28;20041;-76
2022/05/07 11:53:30;;;;;;;39.08;22.08;;;21.30;99.90;;;;;;5052676;28;20079;-76
2022/05/07 11:56:10;;;;;;;38.15;20.70;;;20.40;99.90;;;;;;5052207;28;20087;-76
2022/05/07 11:58:45;;;;;;;37.60;22.55;;;20.50;99.90;;;;;;5052713;28;20047;-76
2022/05/07 12:01:26;;;;;;;35.03;20.60;;;20.80;99.90;;;;;;5035325;28;20080;-83
2022/05/07 12:03:53;;;;;;;34.33;20.23;;;20.60;99.70;;;;;;5051171;28;20103;-77
2022/05/07 12:06:27;;;;;;;32.67;19.13;;;20.60;99.00;;;;;;5052041;28;20052;-76
2022/05/07 12:08:54;;;;;;;32.47;19.00;;;20.60;99.20;;;;;;5052528;28;20053;-75
2022/05/07 12:11:20;;;;;;;;;;;20.50;99.60;;;;;;5052965;28;20082;-75
2022/05/07 12:13:46;;;;;;;31.17;19.00;;;20.20;98.40;;;;;;5052439;28;20368;-75
2022/05/07 12:18:56;;;;;;;39.22;23.42;;;20.80;98.70;;;;;;5052227;28;20436;-76
2022/05/07 12:29:48;;;;;;;37.90;23.00;;;20.60;99.50;;;;;;5052686;28;20045;-78
2022/05/07 12:29:49;;;;;;;40.33;23.33;;;20.30;97.30;;;;;;5053011;28;20045;-76
2022/05/07 12:32:20;;;;;;;33.58;21.15;;;20.40;96.60;;;;;;5037346;28;20048;-77
2022/05/07 12:34:46;;;;;;;35.28;22.48;;;20.20;96.80;;;;;;5051498;28;20165;-78
2022/05/07 12:37:12;;;;;;;34.88;20.23;;;19.70;97.10;;;;;;5035152;28;20434;-76
2022/05/07 12:39:39;;;;;;;39.47;21.17;;;20.20;97.70;;;;;;5052742;28;20124;-76
2022/05/07 12:42:06;;;;;;;;;;;20.10;97.40;;;;;;5053132;28;20279;-77
2022/05/07 12:44:31;;;;;;;33.58;21.08;;;20.00;97.40;;;;;;5053267;28;19921;-77
2022/05/07 12:46:57;;;;;;;29.97;17.90;;;20.20;97.20;;;;;;5052818;28;20485;-78
2022/05/07 12:49:23;;;;;;;30.80;18.60;;;20.10;97.30;;;;;;5052479;28;20136;-76
2022/05/07 12:51:50;;;;;;;29.50;19.23;;;20.20;97.10;;;;;;5051115;28;20052;-76
2022/05/07 12:54:17;;;;;;;34.05;19.40;;;19.90;97.90;;;;;;5052400;28;20049;-76
2022/05/07 12:56:45;;;;;;;31.92;19.02;;;20.10;98.20;;;;;;5052553;28;20060;-75
2022/05/07 12:59:11;;;;;;;34.28;20.42;;;20.00;97.90;;;;;;5052766;28;20544;-76
2022/05/07 13:01:38;;;;;;;35.80;20.57;;;20.20;98.20;;;;;;5034278;28;20139;-76
2022/05/07 13:04:04;;;;;;;;;;;20.50;97.40;;;;;;5051937;28;20053;-76
2022/05/07 13:06:30;;;;;;;35.97;20.95;;;20.40;97.60;;;;;;5051093;28;19921;-76